createdAt,value
2023-02-25T00:01:12.537Z,1005.73
2023-02-25T00:05:08.560Z,1005.69
2023-02-25T00:10:08.164Z,1005.7
2023-02-25T00:15:08.297Z,1005.77
2023-02-25T00:20:08.355Z,1005.74
2023-02-25T00:25:08.411Z,1005.68
2023-02-25T00:30:10.179Z,1005.66
2023-02-25T00:35:08.228Z,1005.69
2023-02-25T00:40:08.341Z,1005.73
2023-02-25T00:45:08.385Z,1005.68
2023-02-25T00:50:08.438Z,1005.67
2023-02-25T00:55:08.484Z,1005.69
2023-02-25T01:00:08.515Z,1005.75
2023-02-25T01:05:08.585Z,1005.62
2023-02-25T01:10:08.755Z,1005.7
2023-02-25T01:15:08.885Z,1005.81
2023-02-25T01:20:08.941Z,1005.69
2023-02-25T01:25:08.003Z,1005.69
2023-02-25T01:30:08.043Z,1005.68
2023-02-25T01:35:08.097Z,1005.78
2023-02-25T01:40:08.155Z,1005.74
2023-02-25T01:45:08.205Z,1005.8
2023-02-25T01:50:08.311Z,1005.75
2023-02-25T01:55:08.384Z,1005.8
2023-02-25T02:00:08.483Z,1005.76
2023-02-25T02:05:08.537Z,1005.76
2023-02-25T02:10:08.602Z,1005.73
2023-02-25T02:15:08.622Z,1005.72
2023-02-25T02:20:14.324Z,1005.72
2023-02-25T02:25:18.392Z,1005.74
2023-02-25T02:30:08.436Z,1005.63
2023-02-25T02:35:08.485Z,1005.85
2023-02-25T02:40:08.579Z,1005.81
2023-02-25T02:45:12.172Z,1005.77
2023-02-25T02:50:08.247Z,1005.74
2023-02-25T02:55:08.276Z,1005.72
2023-02-25T03:00:08.361Z,1005.66
2023-02-25T03:05:08.470Z,1005.83
2023-02-25T03:10:08.531Z,1005.79
2023-02-25T03:15:08.633Z,1005.76
2023-02-25T03:20:08.725Z,1005.92
2023-02-25T03:25:08.787Z,1005.91
2023-02-25T03:30:08.827Z,1005.91
2023-02-25T03:35:08.878Z,1006.02
2023-02-25T03:40:08.970Z,1005.96
2023-02-25T03:45:08.025Z,1006.04
2023-02-25T03:50:08.113Z,1005.95
2023-02-25T03:55:08.165Z,1006.02
2023-02-25T04:00:08.228Z,1005.98
2023-02-25T04:05:08.351Z,1006.09
2023-02-25T04:10:08.493Z,1006.05
2023-02-25T04:15:08.620Z,1006.15
2023-02-25T04:20:08.725Z,1006.21
2023-02-25T04:25:08.764Z,1006.28
2023-02-25T04:30:08.881Z,1006.34
2023-02-25T04:35:13.052Z,1006.31
2023-02-25T04:40:14.372Z,1006.24
2023-02-25T04:45:08.416Z,1006.34
2023-02-25T04:50:08.473Z,1006.49
2023-02-25T04:55:08.568Z,1006.49
2023-02-25T05:00:08.630Z,1006.53
2023-02-25T05:05:03.072Z,1006.41
2023-02-25T05:10:02.300Z,1006.28
2023-02-25T05:15:02.592Z,1006.31
2023-02-25T05:20:02.949Z,1006.34
2023-02-25T05:25:02.161Z,1006.39
2023-02-25T05:30:02.536Z,1006.41
2023-02-25T05:35:02.778Z,1006.34
2023-02-25T05:40:03.167Z,1006.39
2023-02-25T05:45:02.282Z,1006.49
2023-02-25T05:50:02.505Z,1006.46
2023-02-25T05:55:02.665Z,1006.4
2023-02-25T06:00:02.932Z,1006.43
2023-02-25T06:05:02.219Z,1006.46
2023-02-25T06:10:02.494Z,1006.51
2023-02-25T06:15:02.686Z,1006.58
2023-02-25T06:20:03.034Z,1006.57
2023-02-25T06:25:02.231Z,1006.64
2023-02-25T06:30:02.383Z,1006.63
2023-02-25T06:35:02.652Z,1006.72
2023-02-25T06:40:02.913Z,1006.75
2023-02-25T06:45:03.064Z,1006.91
2023-02-25T06:50:02.834Z,1006.93
2023-02-25T06:55:03.101Z,1007.03
2023-02-25T07:00:02.282Z,1006.98
2023-02-25T07:05:02.537Z,1007.13
2023-02-25T07:10:02.684Z,1007.16
2023-02-25T07:15:02.939Z,1007.15
2023-02-25T07:20:02.106Z,1007.27
2023-02-25T07:25:02.480Z,1007.36
2023-02-25T07:30:02.742Z,1007.42
2023-02-25T07:35:03.005Z,1007.55
2023-02-25T07:40:02.277Z,1007.58
2023-02-25T07:45:02.538Z,1007.67
2023-02-25T07:50:02.752Z,1007.72
2023-02-25T07:55:03.058Z,1007.74
2023-02-25T08:00:02.292Z,1007.74
2023-02-25T08:05:02.561Z,1007.85
2023-02-25T08:10:02.822Z,1007.88
2023-02-25T08:15:03.099Z,1007.94
2023-02-25T08:20:02.391Z,1007.84
2023-02-25T08:25:02.610Z,1007.93
2023-02-25T08:30:02.865Z,1007.94
2023-02-25T08:35:03.092Z,1008.05
2023-02-25T08:40:02.414Z,1008.1
2023-02-25T08:45:02.992Z,1008.18
2023-02-25T08:50:02.262Z,1008.19
2023-02-25T08:55:02.507Z,1008.28
2023-02-25T09:00:04.918Z,1008.31
2023-02-25T09:05:03.209Z,1008.43
2023-02-25T09:10:02.397Z,1008.52
2023-02-25T09:15:02.772Z,1008.49
2023-02-25T09:20:03.032Z,1008.56
2023-02-25T09:25:02.232Z,1008.69
2023-02-25T09:30:02.579Z,1008.69
2023-02-25T09:35:02.805Z,1008.84
2023-02-25T09:40:03.113Z,1009.03
2023-02-25T09:45:02.328Z,1009.01
2023-02-25T09:50:02.579Z,1009.02
2023-02-25T09:55:02.807Z,1009.21
2023-02-25T10:00:03.100Z,1009.13
2023-02-25T10:05:02.364Z,1009.31
2023-02-25T10:10:02.567Z,1009.27
2023-02-25T10:15:02.902Z,1009.31
2023-02-25T10:20:03.189Z,1009.34
2023-02-25T10:25:02.444Z,1009.38
2023-02-25T10:30:02.659Z,1009.41
2023-02-25T10:35:02.985Z,1009.6
2023-02-25T10:40:04.475Z,1009.61
2023-02-25T10:45:02.928Z,1009.6
2023-02-25T10:50:03.158Z,1009.6
2023-02-25T10:55:02.383Z,1009.63
2023-02-25T11:00:02.639Z,1009.6
2023-02-25T11:05:02.998Z,1009.57
2023-02-25T11:10:12.151Z,1009.61
2023-02-25T11:15:02.330Z,1009.77
2023-02-25T11:20:02.688Z,1009.86
2023-02-25T11:25:02.901Z,1010.06
2023-02-25T11:30:03.058Z,1010.1
2023-02-25T11:35:02.454Z,1010.14
2023-02-25T11:40:02.589Z,1010.16
2023-02-25T11:45:02.936Z,1010.04
2023-02-25T11:50:02.167Z,1010.12
2023-02-25T11:55:02.404Z,1010.08
2023-02-25T12:00:02.618Z,1010.12
2023-02-25T12:05:02.783Z,1010.14
2023-02-25T12:10:03.001Z,1010.08
2023-02-25T12:15:02.249Z,1010.15
2023-02-25T12:20:02.515Z,1010.23
2023-02-25T12:25:11.803Z,1010.12
2023-02-25T12:30:03.321Z,1010.25
2023-02-25T12:35:02.613Z,1010.25
2023-02-25T12:40:03.067Z,1010.35
2023-02-25T12:45:02.331Z,1010.22
2023-02-25T12:50:02.640Z,1010.22
2023-02-25T12:55:03.126Z,1010.33
2023-02-25T13:00:02.623Z,1010.42
2023-02-25T13:05:12.961Z,1010.51
2023-02-25T13:10:02.312Z,1010.39
2023-02-25T13:15:02.638Z,1010.53
2023-02-25T13:20:02.912Z,1010.54
2023-02-25T13:25:03.289Z,1010.58
2023-02-25T13:30:04.725Z,1010.67
2023-02-25T13:35:03.033Z,1010.73
2023-02-25T13:40:02.325Z,1010.69
2023-02-25T13:45:02.593Z,1010.83
2023-02-25T13:50:02.712Z,1010.86
2023-02-25T13:55:03.019Z,1010.95
2023-02-25T14:00:02.165Z,1010.96
2023-02-25T14:05:02.344Z,1011.03
2023-02-25T14:10:02.546Z,1011.07
2023-02-25T14:15:02.811Z,1011.16
2023-02-25T14:20:02.934Z,1011.1
2023-02-25T14:25:02.088Z,1011.35
2023-02-25T14:30:02.383Z,1011.28
2023-02-25T14:35:02.574Z,1011.33
2023-02-25T14:40:02.764Z,1011.41
2023-02-25T14:45:02.920Z,1011.57
2023-02-25T14:50:03.251Z,1011.45
2023-02-25T14:55:02.499Z,1011.52
2023-02-25T15:00:02.723Z,1011.75
2023-02-25T15:05:03.022Z,1011.55
2023-02-25T15:10:02.288Z,1011.7
2023-02-25T15:15:02.498Z,1011.76
2023-02-25T15:20:02.757Z,1011.68
2023-02-25T15:25:03.017Z,1011.88
2023-02-25T15:30:02.193Z,1011.95
2023-02-25T15:35:02.479Z,1011.97
2023-02-25T15:40:02.813Z,1012.06
2023-02-25T15:45:03.065Z,1012.19
2023-02-25T15:50:02.366Z,1012.25
2023-02-25T15:55:02.633Z,1012.38
2023-02-25T16:00:03.000Z,1012.49
2023-02-25T16:05:09.061Z,1012.49
2023-02-25T16:10:02.501Z,1012.63
2023-02-25T16:15:02.853Z,1012.63
2023-02-25T16:20:03.104Z,1012.69
2023-02-25T16:25:02.314Z,1012.8
2023-02-25T16:30:02.488Z,1012.76
2023-02-25T16:35:02.570Z,1012.95
2023-02-25T16:40:02.737Z,1012.98
2023-02-25T16:45:02.961Z,1013.16
2023-02-25T16:50:02.224Z,1013.23
2023-02-25T16:55:08.100Z,1013.25
2023-02-25T17:00:12.434Z,1013.35
2023-02-25T17:05:02.628Z,1013.41
2023-02-25T17:10:02.839Z,1013.41
2023-02-25T17:15:02.961Z,1013.55
2023-02-25T17:20:02.215Z,1013.48
2023-02-25T17:25:02.475Z,1013.51
2023-02-25T17:30:02.780Z,1013.59
2023-02-25T17:35:03.140Z,1013.82
2023-02-25T17:40:02.437Z,1013.81
2023-02-25T17:45:02.769Z,1013.87
2023-02-25T17:50:03.056Z,1013.97
2023-02-25T17:55:02.458Z,1014.04
2023-02-25T18:00:02.711Z,1014.08
2023-02-25T18:05:02.942Z,1014.06
2023-02-25T18:10:02.173Z,1014.22
2023-02-25T18:15:02.429Z,1014.27
2023-02-25T18:20:02.640Z,1014.35
2023-02-25T18:25:02.871Z,1014.41
2023-02-25T18:30:03.268Z,1014.42
2023-02-25T18:35:02.538Z,1014.54
2023-02-25T18:40:02.828Z,1014.52
2023-02-25T18:45:03.008Z,1014.59
2023-02-25T18:50:02.220Z,1014.58
2023-02-25T18:55:02.501Z,1014.67
2023-02-25T19:00:02.821Z,1014.66
2023-02-25T19:05:02.991Z,1014.77
2023-02-25T19:10:02.241Z,1014.76
2023-02-25T19:15:02.565Z,1014.84
2023-02-25T19:20:02.860Z,1014.91
2023-02-25T19:25:03.229Z,1015.0
2023-02-25T19:30:02.439Z,1014.98
2023-02-25T19:35:02.697Z,1015.12
2023-02-25T19:40:02.941Z,1015.08
2023-02-25T19:45:02.148Z,1015.2
2023-02-25T19:50:02.477Z,1015.27
2023-02-25T19:55:02.711Z,1015.27
2023-02-25T20:00:03.084Z,1015.33
2023-02-25T20:05:02.386Z,1015.39
2023-02-25T20:10:02.635Z,1015.47
2023-02-25T20:15:02.878Z,1015.42
2023-02-25T20:20:03.097Z,1015.45
2023-02-25T20:25:02.333Z,1015.48
2023-02-25T20:30:02.677Z,1015.57
2023-02-25T20:35:02.896Z,1015.58
2023-02-25T20:40:03.155Z,1015.56
2023-02-25T20:45:02.353Z,1015.62
2023-02-25T20:50:02.630Z,1015.68
2023-02-25T20:55:03.098Z,1015.63
2023-02-25T21:00:02.466Z,1015.74
2023-02-25T21:05:02.858Z,1015.74
2023-02-25T21:10:03.173Z,1015.87
2023-02-25T21:15:02.470Z,1015.97
2023-02-25T21:20:02.838Z,1016.14
2023-02-25T21:25:03.084Z,1016.39
2023-02-25T21:30:02.253Z,1016.56
2023-02-25T21:35:02.516Z,1016.4
2023-02-25T21:40:02.743Z,1016.16
2023-02-25T21:45:03.029Z,1016.28
2023-02-25T21:50:02.335Z,1016.26
2023-02-25T21:55:02.590Z,1016.23
2023-02-25T22:00:02.763Z,1016.27
2023-02-25T22:05:03.057Z,1016.42
2023-02-25T22:10:02.253Z,1016.37
2023-02-25T22:15:03.348Z,1016.47
2023-02-25T22:20:02.497Z,1016.46
2023-02-25T22:25:02.692Z,1016.5
2023-02-25T22:30:02.999Z,1016.67
2023-02-25T22:35:02.206Z,1016.64
2023-02-25T22:40:02.392Z,1016.61
2023-02-25T22:45:02.632Z,1016.58
2023-02-25T22:50:02.748Z,1016.72
2023-02-25T22:55:03.053Z,1016.81
2023-02-25T23:00:02.373Z,1016.79
2023-02-25T23:05:15.350Z,1016.78
2023-02-25T23:10:08.482Z,1016.75
2023-02-25T23:15:08.525Z,1016.77
2023-02-25T23:20:08.605Z,1016.8
2023-02-25T23:25:08.653Z,1016.7
2023-02-25T23:30:08.723Z,1016.7
2023-02-25T23:35:08.763Z,1016.8
2023-02-25T23:40:08.824Z,1016.76
2023-02-25T23:45:08.862Z,1016.79
2023-02-25T23:50:08.964Z,1016.86
2023-02-25T23:55:08.064Z,1016.98
